sensor_id;sensor_type;location;lat;lon;timestamp;pressure;altitude;pressure_sealevel;temperature;humidity
34185;BME280;20454;48.100;11.776;2023-02-16T00:01:22;96443.72;;;-0.88;100.00
34185;BME280;20454;48.100;11.776;2023-02-16T00:03:50;96437.78;;;-0.85;100.00
34185;BME280;20454;48.100;11.776;2023-02-16T00:06:16;96436.13;;;-0.86;100.00
34185;BME280;20454;48.100;11.776;2023-02-16T00:08:48;96452.50;;;-0.86;100.00
34185;BME280;20454;48.100;11.776;2023-02-16T00:11:27;96448.72;;;-0.85;100.00
34185;BME280;20454;48.100;11.776;2023-02-16T00:14:12;96451.81;;;-0.81;100.00
34185;BME280;20454;48.100;11.776;2023-02-16T00:16:39;96449.47;;;-0.78;100.00
34185;BME280;20454;48.100;11.776;2023-02-16T00:19:20;96446.50;;;-0.76;100.00
34185;BME280;20454;48.100;11.776;2023-02-16T00:21:47;96445.66;;;-0.77;100.00
34185;BME280;20454;48.100;11.776;2023-02-16T00:24:14;96447.00;;;-0.79;100.00
34185;BME280;20454;48.100;11.776;2023-02-16T00:26:41;96441.53;;;-0.79;100.00
34185;BME280;20454;48.100;11.776;2023-02-16T00:29:34;96437.09;;;-0.80;100.00
34185;BME280;20454;48.100;11.776;2023-02-16T00:32:04;96443.25;;;-0.85;100.00
34185;BME280;20454;48.100;11.776;2023-02-16T00:34:34;96431.94;;;-0.88;100.00
34185;BME280;20454;48.100;11.776;2023-02-16T00:37:05;96426.13;;;-0.92;100.00
34185;BME280;20454;48.100;11.776;2023-02-16T00:39:32;96426.34;;;-0.93;100.00
34185;BME280;20454;48.100;11.776;2023-02-16T00:42:05;96421.34;;;-0.96;100.00
34185;BME280;20454;48.100;11.776;2023-02-16T00:44:42;96420.75;;;-0.98;100.00
34185;BME280;20454;48.100;11.776;2023-02-16T00:49:50;96415.72;;;-1.01;100.00
34185;BME280;20454;48.100;11.776;2023-02-16T00:52:36;96402.16;;;-1.08;100.00
34185;BME280;20454;48.100;11.776;2023-02-16T00:55:11;96404.91;;;-1.08;100.00
34185;BME280;20454;48.100;11.776;2023-02-16T00:57:45;96401.56;;;-1.10;100.00
34185;BME280;20454;48.100;11.776;2023-02-16T01:00:33;96398.00;;;-1.10;100.00
34185;BME280;20454;48.100;11.776;2023-02-16T01:03:04;96403.22;;;-1.09;100.00
34185;BME280;20454;48.100;11.776;2023-02-16T01:05:30;96401.09;;;-1.07;100.00
34185;BME280;20454;48.100;11.776;2023-02-16T01:07:56;96391.25;;;-1.08;100.00
34185;BME280;20454;48.100;11.776;2023-02-16T01:10:41;96378.28;;;-1.12;100.00
34185;BME280;20454;48.100;11.776;2023-02-16T01:13:43;96383.66;;;-1.06;100.00
34185;BME280;20454;48.100;11.776;2023-02-16T01:16:36;96383.44;;;-1.04;100.00
34185;BME280;20454;48.100;11.776;2023-02-16T01:19:02;96376.06;;;-1.04;100.00
34185;BME280;20454;48.100;11.776;2023-02-16T01:21:28;96379.63;;;-1.03;100.00
34185;BME280;20454;48.100;11.776;2023-02-16T01:23:54;96367.88;;;-1.04;100.00
34185;BME280;20454;48.100;11.776;2023-02-16T01:26:20;96364.91;;;-1.02;100.00
34185;BME280;20454;48.100;11.776;2023-02-16T01:28:47;96371.81;;;-1.00;100.00
34185;BME280;20454;48.100;11.776;2023-02-16T01:31:13;96376.81;;;-0.97;100.00
34185;BME280;20454;48.100;11.776;2023-02-16T01:33:41;96378.88;;;-0.92;100.00
34185;BME280;20454;48.100;11.776;2023-02-16T01:36:42;96365.66;;;-0.95;100.00
34185;BME280;20454;48.100;11.776;2023-02-16T01:39:14;96377.19;;;-0.93;100.00
34185;BME280;20454;48.100;11.776;2023-02-16T01:42:17;96387.06;;;-0.92;100.00
34185;BME280;20454;48.100;11.776;2023-02-16T01:44:51;96387.88;;;-0.92;100.00
34185;BME280;20454;48.100;11.776;2023-02-16T01:47:46;96389.81;;;-0.92;100.00
34185;BME280;20454;48.100;11.776;2023-02-16T01:50:27;96391.47;;;-0.91;100.00
34185;BME280;20454;48.100;11.776;2023-02-16T01:53:21;96393.72;;;-0.88;100.00
34185;BME280;20454;48.100;11.776;2023-02-16T01:55:50;96393.50;;;-0.87;100.00
34185;BME280;20454;48.100;11.776;2023-02-16T01:58:38;96381.28;;;-0.84;100.00
34185;BME280;20454;48.100;11.776;2023-02-16T02:04:02;96379.16;;;-0.82;100.00
34185;BME280;20454;48.100;11.776;2023-02-16T02:06:52;96388.78;;;-0.80;100.00
34185;BME280;20454;48.100;11.776;2023-02-16T02:10:02;96382.94;;;-0.83;100.00
34185;BME280;20454;48.100;11.776;2023-02-16T02:15:16;96392.91;;;-0.89;100.00
34185;BME280;20454;48.100;11.776;2023-02-16T02:17:42;96386.81;;;-0.91;100.00
34185;BME280;20454;48.100;11.776;2023-02-16T02:29:53;96391.63;;;-1.04;100.00
34185;BME280;20454;48.100;11.776;2023-02-16T02:32:26;96386.59;;;-1.07;100.00
34185;BME280;20454;48.100;11.776;2023-02-16T02:35:38;96392.53;;;-1.10;100.00
34185;BME280;20454;48.100;11.776;2023-02-16T02:38:42;96394.41;;;-1.11;100.00
34185;BME280;20454;48.100;11.776;2023-02-16T02:41:25;96381.72;;;-1.17;100.00
34185;BME280;20454;48.100;11.776;2023-02-16T02:44:16;96386.16;;;-1.22;100.00
34185;BME280;20454;48.100;11.776;2023-02-16T02:46:45;96388.28;;;-1.24;100.00
34185;BME280;20454;48.100;11.776;2023-02-16T02:49:11;96378.66;;;-1.27;100.00
34185;BME280;20454;48.100;11.776;2023-02-16T02:51:37;96380.78;;;-1.29;100.00
34185;BME280;20454;48.100;11.776;2023-02-16T02:54:15;96379.56;;;-1.33;100.00
34185;BME280;20454;48.100;11.776;2023-02-16T05:01:43;96398.56;;;-2.05;100.00
34185;BME280;20454;48.100;11.776;2023-02-16T05:04:09;96405.06;;;-2.06;100.00
34185;BME280;20454;48.100;11.776;2023-02-16T05:06:36;96402.53;;;-2.07;100.00
34185;BME280;20454;48.100;11.776;2023-02-16T05:09:04;96393.97;;;-2.11;100.00
34185;BME280;20454;48.100;11.776;2023-02-16T05:11:30;96389.81;;;-2.13;100.00
34185;BME280;20454;48.100;11.776;2023-02-16T05:14:31;96389.19;;;-2.15;100.00
34185;BME280;20454;48.100;11.776;2023-02-16T05:17:26;96391.09;;;-2.16;100.00
34185;BME280;20454;48.100;11.776;2023-02-16T05:19:59;96399.03;;;-2.14;100.00
34185;BME280;20454;48.100;11.776;2023-02-16T05:22:25;96397.38;;;-2.15;100.00
34185;BME280;20454;48.100;11.776;2023-02-16T05:24:53;96399.66;;;-2.12;100.00
34185;BME280;20454;48.100;11.776;2023-02-16T05:27:26;96396.91;;;-2.12;100.00
34185;BME280;20454;48.100;11.776;2023-02-16T05:29:52;96408.00;;;-2.07;100.00
34185;BME280;20454;48.100;11.776;2023-02-16T05:32:18;96393.53;;;-2.08;100.00
34185;BME280;20454;48.100;11.776;2023-02-16T05:34:44;96396.25;;;-2.08;100.00
34185;BME280;20454;48.100;11.776;2023-02-16T05:37:12;96388.94;;;-2.07;100.00
34185;BME280;20454;48.100;11.776;2023-02-16T05:39:38;96399.38;;;-2.04;100.00
34185;BME280;20454;48.100;11.776;2023-02-16T05:42:04;96398.56;;;-2.05;100.00
34185;BME280;20454;48.100;11.776;2023-02-16T05:44:30;96409.63;;;-2.00;100.00
34185;BME280;20454;48.100;11.776;2023-02-16T06:30:59;96452.00;;;-2.04;100.00
34185;BME280;20454;48.100;11.776;2023-02-16T06:33:25;96447.16;;;-2.02;100.00
34185;BME280;20454;48.100;11.776;2023-02-16T06:35:50;96459.91;;;-1.96;100.00
34185;BME280;20454;48.100;11.776;2023-02-16T06:38:16;96456.13;;;-1.95;100.00
34185;BME280;20454;48.100;11.776;2023-02-16T06:40:42;96457.94;;;-1.89;100.00
34185;BME280;20454;48.100;11.776;2023-02-16T06:43:07;96455.63;;;-1.85;100.00
34185;BME280;20454;48.100;11.776;2023-02-16T06:45:33;96447.91;;;-1.88;100.00
34185;BME280;20454;48.100;11.776;2023-02-16T06:47:59;96457.25;;;-1.78;100.00
34185;BME280;20454;48.100;11.776;2023-02-16T06:50:25;96453.84;;;-1.73;100.00
34185;BME280;20454;48.100;11.776;2023-02-16T06:52:50;96459.22;;;-1.67;100.00
34185;BME280;20454;48.100;11.776;2023-02-16T06:55:16;96453.94;;;-1.62;100.00
34185;BME280;20454;48.100;11.776;2023-02-16T06:57:42;96464.75;;;-1.49;100.00
34185;BME280;20454;48.100;11.776;2023-02-16T07:00:08;96454.59;;;-1.42;100.00
34185;BME280;20454;48.100;11.776;2023-02-16T07:02:34;96458.94;;;-1.34;100.00
34185;BME280;20454;48.100;11.776;2023-02-16T07:05:00;96460.31;;;-1.25;100.00
34185;BME280;20454;48.100;11.776;2023-02-16T07:07:26;96457.28;;;-1.17;100.00
34185;BME280;20454;48.100;11.776;2023-02-16T07:09:52;96468.13;;;-1.11;100.00
34185;BME280;20454;48.100;11.776;2023-02-16T07:12:17;96475.19;;;-1.03;100.00
34185;BME280;20454;48.100;11.776;2023-02-16T07:14:43;96478.22;;;-0.93;100.00
34185;BME280;20454;48.100;11.776;2023-02-16T07:17:09;96476.25;;;-0.86;100.00
34185;BME280;20454;48.100;11.776;2023-02-16T07:19:35;96472.97;;;-0.77;100.00
34185;BME280;20454;48.100;11.776;2023-02-16T07:22:02;96473.50;;;-0.68;100.00
34185;BME280;20454;48.100;11.776;2023-02-16T07:24:28;96479.50;;;-0.60;100.00
34185;BME280;20454;48.100;11.776;2023-02-16T07:26:54;96479.78;;;-0.50;100.00
34185;BME280;20454;48.100;11.776;2023-02-16T07:29:20;96476.72;;;-0.42;100.00
34185;BME280;20454;48.100;11.776;2023-02-16T07:31:46;96474.09;;;-0.30;100.00
34185;BME280;20454;48.100;11.776;2023-02-16T07:34:12;96473.97;;;-0.24;100.00
34185;BME280;20454;48.100;11.776;2023-02-16T07:36:38;96483.88;;;-0.12;100.00
34185;BME280;20454;48.100;11.776;2023-02-16T07:39:03;96479.53;;;-0.01;100.00
34185;BME280;20454;48.100;11.776;2023-02-16T07:41:29;96491.34;;;0.11;100.00
34185;BME280;20454;48.100;11.776;2023-02-16T07:43:55;96484.47;;;0.20;100.00
34185;BME280;20454;48.100;11.776;2023-02-16T07:46:21;96492.94;;;0.30;100.00
34185;BME280;20454;48.100;11.776;2023-02-16T07:48:48;96494.63;;;0.42;100.00
34185;BME280;20454;48.100;11.776;2023-02-16T07:51:26;96489.44;;;0.52;100.00
34185;BME280;20454;48.100;11.776;2023-02-16T07:53:53;96490.50;;;0.63;100.00
34185;BME280;20454;48.100;11.776;2023-02-16T07:56:25;96496.59;;;0.76;100.00
34185;BME280;20454;48.100;11.776;2023-02-16T07:58:56;96491.09;;;0.88;100.00
34185;BME280;20454;48.100;11.776;2023-02-16T08:01:23;96501.81;;;1.01;100.00
34185;BME280;20454;48.100;11.776;2023-02-16T08:03:49;96490.63;;;1.14;100.00
34185;BME280;20454;48.100;11.776;2023-02-16T08:06:15;96493.13;;;1.27;100.00
34185;BME280;20454;48.100;11.776;2023-02-16T08:08:41;96496.41;;;1.40;100.00
34185;BME280;20454;48.100;11.776;2023-02-16T08:11:21;96487.72;;;1.55;100.00
34185;BME280;20454;48.100;11.776;2023-02-16T08:13:47;96492.19;;;1.72;100.00
34185;BME280;20454;48.100;11.776;2023-02-16T08:16:18;96489.00;;;1.92;100.00
34185;BME280;20454;48.100;11.776;2023-02-16T08:18:44;96484.44;;;2.09;100.00
34185;BME280;20454;48.100;11.776;2023-02-16T08:21:20;96480.47;;;2.33;100.00
34185;BME280;20454;48.100;11.776;2023-02-16T08:23:53;96474.00;;;2.55;100.00
34185;BME280;20454;48.100;11.776;2023-02-16T08:26:24;96491.00;;;2.85;98.17
34185;BME280;20454;48.100;11.776;2023-02-16T08:28:51;96484.81;;;3.11;95.81
34185;BME280;20454;48.100;11.776;2023-02-16T08:31:20;96493.47;;;3.36;94.31
34185;BME280;20454;48.100;11.776;2023-02-16T08:33:48;96490.72;;;3.58;91.29
34185;BME280;20454;48.100;11.776;2023-02-16T08:36:20;96486.59;;;3.98;85.35
34185;BME280;20454;48.100;11.776;2023-02-16T08:38:49;96498.56;;;4.35;81.94
34185;BME280;20454;48.100;11.776;2023-02-16T08:41:17;96494.22;;;4.65;80.85
34185;BME280;20454;48.100;11.776;2023-02-16T08:43:43;96488.09;;;4.90;78.47
34185;BME280;20454;48.100;11.776;2023-02-16T08:46:09;96498.25;;;5.16;77.20
34185;BME280;20454;48.100;11.776;2023-02-16T08:48:36;96492.28;;;5.34;76.93
34185;BME280;20454;48.100;11.776;2023-02-16T08:51:02;96493.28;;;5.54;75.73
34185;BME280;20454;48.100;11.776;2023-02-16T08:53:34;96489.53;;;5.75;74.13
34185;BME280;20454;48.100;11.776;2023-02-16T08:56:02;96480.91;;;6.18;70.34
34185;BME280;20454;48.100;11.776;2023-02-16T08:58:29;96481.84;;;6.54;68.18
34185;BME280;20454;48.100;11.776;2023-02-16T09:00:56;96479.94;;;6.59;68.17
34185;BME280;20454;48.100;11.776;2023-02-16T09:03:23;96485.50;;;6.79;67.37
34185;BME280;20454;48.100;11.776;2023-02-16T09:05:51;96479.16;;;6.89;67.96
34185;BME280;20454;48.100;11.776;2023-02-16T09:08:20;96472.50;;;7.15;66.08
34185;BME280;20454;48.100;11.776;2023-02-16T09:10:46;96471.38;;;7.36;64.12
34185;BME280;20454;48.100;11.776;2023-02-16T09:13:12;96481.88;;;7.49;64.29
34185;BME280;20454;48.100;11.776;2023-02-16T09:15:44;96477.47;;;7.53;64.36
34185;BME280;20454;48.100;11.776;2023-02-16T09:18:10;96478.28;;;7.58;64.36
34185;BME280;20454;48.100;11.776;2023-02-16T09:20:42;96483.50;;;7.70;64.52
34185;BME280;20454;48.100;11.776;2023-02-16T09:23:09;96474.38;;;7.74;63.45
34185;BME280;20454;48.100;11.776;2023-02-16T09:25:38;96479.31;;;7.87;62.83
34185;BME280;20454;48.100;11.776;2023-02-16T09:28:05;96471.53;;;7.94;63.38
34185;BME280;20454;48.100;11.776;2023-02-16T09:30:35;96477.59;;;8.06;63.01
34185;BME280;20454;48.100;11.776;2023-02-16T09:33:03;96464.78;;;8.15;63.44
34185;BME280;20454;48.100;11.776;2023-02-16T09:35:29;96477.22;;;8.38;61.22
34185;BME280;20454;48.100;11.776;2023-02-16T09:37:55;96468.25;;;8.56;60.93
34185;BME280;20454;48.100;11.776;2023-02-16T09:40:22;96474.75;;;8.80;57.89
34185;BME280;20454;48.100;11.776;2023-02-16T09:43:26;96477.53;;;9.18;56.90
34185;BME280;20454;48.100;11.776;2023-02-16T09:45:56;96464.53;;;9.47;55.43
34185;BME280;20454;48.100;11.776;2023-02-16T09:48:34;96469.25;;;9.75;55.45
34185;BME280;20454;48.100;11.776;2023-02-16T09:51:00;96464.44;;;10.09;54.30
34185;BME280;20454;48.100;11.776;2023-02-16T09:53:37;96464.78;;;10.49;54.14
34185;BME280;20454;48.100;11.776;2023-02-16T09:58:48;96455.19;;;11.16;50.48
34185;BME280;20454;48.100;11.776;2023-02-16T10:07:20;96457.75;;;12.35;48.06
34185;BME280;20454;48.100;11.776;2023-02-16T10:09:54;96458.44;;;12.81;46.45
34185;BME280;20454;48.100;11.776;2023-02-16T10:12:32;96459.56;;;13.07;44.56
34185;BME280;20454;48.100;11.776;2023-02-16T10:15:18;96455.31;;;13.32;43.46
34185;BME280;20454;48.100;11.776;2023-02-16T10:17:59;96460.72;;;13.50;43.88
34185;BME280;20454;48.100;11.776;2023-02-16T10:20:41;96447.97;;;13.80;42.08
34185;BME280;20454;48.100;11.776;2023-02-16T10:23:41;96445.59;;;13.95;41.18
34185;BME280;20454;48.100;11.776;2023-02-16T10:26:18;96453.75;;;14.14;41.75
34185;BME280;20454;48.100;11.776;2023-02-16T10:28:52;96446.34;;;14.48;41.45
34185;BME280;20454;48.100;11.776;2023-02-16T10:31:49;96442.88;;;14.90;40.93
34185;BME280;20454;48.100;11.776;2023-02-16T10:38:13;96446.34;;;14.95;38.58
34185;BME280;20454;48.100;11.776;2023-02-16T10:40:38;96439.91;;;15.03;39.15
34185;BME280;20454;48.100;11.776;2023-02-16T10:45:56;96433.94;;;14.71;37.99
34185;BME280;20454;48.100;11.776;2023-02-16T10:48:24;96431.75;;;14.68;38.60
34185;BME280;20454;48.100;11.776;2023-02-16T10:51:02;96434.09;;;14.75;39.12
34185;BME280;20454;48.100;11.776;2023-02-16T10:54:01;96435.44;;;14.85;39.63
34185;BME280;20454;48.100;11.776;2023-02-16T10:59:41;96430.13;;;14.67;37.23
34185;BME280;20454;48.100;11.776;2023-02-16T11:02:25;96431.00;;;14.93;37.22
34185;BME280;20454;48.100;11.776;2023-02-16T11:04:55;96427.25;;;15.14;37.19
34185;BME280;20454;48.100;11.776;2023-02-16T11:07:27;96413.91;;;15.37;36.42
34185;BME280;20454;48.100;11.776;2023-02-16T11:09:57;96416.03;;;15.57;35.78
34185;BME280;20454;48.100;11.776;2023-02-16T11:12:37;96410.91;;;15.76;35.84
34185;BME280;20454;48.100;11.776;2023-02-16T11:18:04;96402.84;;;15.57;34.76
34185;BME280;20454;48.100;11.776;2023-02-16T11:26:24;96396.66;;;14.71;34.94
34185;BME280;20454;48.100;11.776;2023-02-16T11:28:51;96400.69;;;14.39;35.42
34185;BME280;20454;48.100;11.776;2023-02-16T11:31:35;96403.81;;;14.38;36.85
34185;BME280;20454;48.100;11.776;2023-02-16T11:36:45;96389.50;;;14.39;37.31
34185;BME280;20454;48.100;11.776;2023-02-16T11:39:23;96387.38;;;14.45;37.76
34185;BME280;20454;48.100;11.776;2023-02-16T11:41:53;96389.41;;;14.53;37.24
34185;BME280;20454;48.100;11.776;2023-02-16T11:44:42;96386.56;;;14.44;38.31
34185;BME280;20454;48.100;11.776;2023-02-16T11:47:33;96381.59;;;14.41;37.40
34185;BME280;20454;48.100;11.776;2023-02-16T11:50:26;96376.88;;;14.50;36.48
34185;BME280;20454;48.100;11.776;2023-02-16T11:55:34;96374.25;;;14.62;36.89
34185;BME280;20454;48.100;11.776;2023-02-16T12:01:08;96357.81;;;14.69;35.67
34185;BME280;20454;48.100;11.776;2023-02-16T12:15:14;96331.75;;;15.28;35.05
34185;BME280;20454;48.100;11.776;2023-02-16T12:25:03;96322.41;;;15.87;33.49
34185;BME280;20454;48.100;11.776;2023-02-16T12:34:11;96312.66;;;17.21;31.13
34185;BME280;20454;48.100;11.776;2023-02-16T12:37:51;96306.88;;;17.38;31.78
34185;BME280;20454;48.100;11.776;2023-02-16T12:43:33;96313.47;;;17.01;30.27
34185;BME280;20454;48.100;11.776;2023-02-16T12:46:10;96303.28;;;16.96;30.74
34185;BME280;20454;48.100;11.776;2023-02-16T12:48:49;96286.34;;;17.05;30.82
34185;BME280;20454;48.100;11.776;2023-02-16T12:51:48;96290.78;;;16.65;31.13
34185;BME280;20454;48.100;11.776;2023-02-16T12:54:35;96302.63;;;16.70;31.25
34185;BME280;20454;48.100;11.776;2023-02-16T12:57:25;96292.16;;;16.79;31.28
34185;BME280;20454;48.100;11.776;2023-02-16T13:00:08;96285.53;;;16.84;31.02
34185;BME280;20454;48.100;11.776;2023-02-16T13:02:46;96272.94;;;16.61;30.54
34185;BME280;20454;48.100;11.776;2023-02-16T13:05:30;96278.50;;;16.69;31.58
34185;BME280;20454;48.100;11.776;2023-02-16T13:08:16;96289.56;;;16.74;31.46
34185;BME280;20454;48.100;11.776;2023-02-16T13:13:23;96274.72;;;16.45;30.96
34185;BME280;20454;48.100;11.776;2023-02-16T13:16:00;96279.41;;;16.61;30.92
34185;BME280;20454;48.100;11.776;2023-02-16T13:18:31;96278.84;;;16.47;30.89
34185;BME280;20454;48.100;11.776;2023-02-16T13:24:07;96275.06;;;16.43;30.89
34185;BME280;20454;48.100;11.776;2023-02-16T13:27:01;96273.00;;;16.23;31.19
34185;BME280;20454;48.100;11.776;2023-02-16T13:35:11;96269.09;;;15.87;31.97
34185;BME280;20454;48.100;11.776;2023-02-16T13:44:10;96251.31;;;16.03;31.09
34185;BME280;20454;48.100;11.776;2023-02-16T13:46:44;96267.94;;;16.17;30.67
34185;BME280;20454;48.100;11.776;2023-02-16T13:49:37;96257.03;;;16.15;31.64
34185;BME280;20454;48.100;11.776;2023-02-16T13:52:31;96261.53;;;16.37;30.60
34185;BME280;20454;48.100;11.776;2023-02-16T13:54:59;96256.66;;;16.54;29.72
34185;BME280;20454;48.100;11.776;2023-02-16T14:03:36;96255.75;;;16.83;29.72
34185;BME280;20454;48.100;11.776;2023-02-16T14:17:22;96255.00;;;16.53;30.21
34185;BME280;20454;48.100;11.776;2023-02-16T14:22:49;96242.69;;;16.66;30.84
34185;BME280;20454;48.100;11.776;2023-02-16T14:27:55;96242.72;;;16.78;30.35
34185;BME280;20454;48.100;11.776;2023-02-16T14:30:26;96246.16;;;16.84;30.74
34185;BME280;20454;48.100;11.776;2023-02-16T14:36:12;96242.25;;;16.76;30.41
34185;BME280;20454;48.100;11.776;2023-02-16T14:38:44;96243.16;;;16.68;31.39
34185;BME280;20454;48.100;11.776;2023-02-16T14:41:31;96230.88;;;16.52;30.46
34185;BME280;20454;48.100;11.776;2023-02-16T14:47:11;96242.59;;;15.96;31.07
34185;BME280;20454;48.100;11.776;2023-02-16T14:49:59;96235.78;;;15.68;32.65
34185;BME280;20454;48.100;11.776;2023-02-16T14:58:28;96241.28;;;14.77;32.25
34185;BME280;20454;48.100;11.776;2023-02-16T15:01:20;96245.09;;;14.47;32.98
34185;BME280;20454;48.100;11.776;2023-02-16T15:03:50;96234.22;;;14.28;32.93
34185;BME280;20454;48.100;11.776;2023-02-16T15:06:27;96232.16;;;14.03;33.37
34185;BME280;20454;48.100;11.776;2023-02-16T15:08:58;96238.16;;;13.80;33.97
34185;BME280;20454;48.100;11.776;2023-02-16T15:11:30;96245.38;;;13.64;34.63
34185;BME280;20454;48.100;11.776;2023-02-16T15:14:09;96241.84;;;13.50;34.25
34185;BME280;20454;48.100;11.776;2023-02-16T15:16:38;96239.16;;;13.36;34.64
34185;BME280;20454;48.100;11.776;2023-02-16T15:19:15;96241.94;;;13.28;34.51
34185;BME280;20454;48.100;11.776;2023-02-16T15:21:43;96235.25;;;13.15;34.61
34185;BME280;20454;48.100;11.776;2023-02-16T15:24:22;96241.00;;;13.10;35.13
34185;BME280;20454;48.100;11.776;2023-02-16T15:26:55;96239.69;;;13.08;34.56
34185;BME280;20454;48.100;11.776;2023-02-16T15:29:26;96240.63;;;13.03;34.10
34185;BME280;20454;48.100;11.776;2023-02-16T15:31:53;96233.13;;;12.90;35.03
34185;BME280;20454;48.100;11.776;2023-02-16T15:34:33;96233.38;;;12.80;35.28
34185;BME280;20454;48.100;11.776;2023-02-16T15:37:00;96241.94;;;12.84;34.36
34185;BME280;20454;48.100;11.776;2023-02-16T15:39:43;96237.44;;;12.74;35.06
34185;BME280;20454;48.100;11.776;2023-02-16T15:42:22;96238.50;;;12.65;35.63
34185;BME280;20454;48.100;11.776;2023-02-16T15:44:50;96227.91;;;12.53;36.42
34185;BME280;20454;48.100;11.776;2023-02-16T15:47:26;96227.88;;;12.45;36.62
34185;BME280;20454;48.100;11.776;2023-02-16T15:49:53;96239.97;;;12.40;35.95
34185;BME280;20454;48.100;11.776;2023-02-16T15:52:31;96247.75;;;12.30;36.29
34185;BME280;20454;48.100;11.776;2023-02-16T15:55:01;96240.31;;;12.25;35.00
34185;BME280;20454;48.100;11.776;2023-02-16T15:57:34;96233.47;;;12.09;35.98
34185;BME280;20454;48.100;11.776;2023-02-16T16:00:19;96243.72;;;12.00;35.70
34185;BME280;20454;48.100;11.776;2023-02-16T16:02:49;96251.47;;;11.90;35.88
34185;BME280;20454;48.100;11.776;2023-02-16T16:05:31;96241.97;;;11.77;36.46
34185;BME280;20454;48.100;11.776;2023-02-16T16:08:01;96243.66;;;11.65;36.83
34185;BME280;20454;48.100;11.776;2023-02-16T16:10:35;96246.63;;;11.55;37.23
34185;BME280;20454;48.100;11.776;2023-02-16T16:13:27;96246.91;;;11.40;36.97
34185;BME280;20454;48.100;11.776;2023-02-16T16:15:55;96245.78;;;11.27;37.52
34185;BME280;20454;48.100;11.776;2023-02-16T16:18:48;96249.72;;;11.13;38.14
34185;BME280;20454;48.100;11.776;2023-02-16T16:21:27;96264.09;;;11.01;38.34
34185;BME280;20454;48.100;11.776;2023-02-16T16:24:08;96255.22;;;10.86;38.57
34185;BME280;20454;48.100;11.776;2023-02-16T16:26:55;96260.22;;;10.70;39.38
34185;BME280;20454;48.100;11.776;2023-02-16T16:29:43;96248.50;;;10.55;39.62
34185;BME280;20454;48.100;11.776;2023-02-16T16:32:26;96257.03;;;10.45;39.79
34185;BME280;20454;48.100;11.776;2023-02-16T16:34:55;96260.06;;;10.30;39.63
34185;BME280;20454;48.100;11.776;2023-02-16T16:37:32;96261.84;;;10.21;40.33
34185;BME280;20454;48.100;11.776;2023-02-16T16:40:06;96261.25;;;10.05;39.95
34185;BME280;20454;48.100;11.776;2023-02-16T16:45:39;96268.06;;;9.76;41.38
34185;BME280;20454;48.100;11.776;2023-02-16T16:48:28;96280.19;;;9.61;41.95
34185;BME280;20454;48.100;11.776;2023-02-16T16:51:16;96284.63;;;9.39;43.31
34185;BME280;20454;48.100;11.776;2023-02-16T16:53:53;96272.41;;;9.17;44.07
34185;BME280;20454;48.100;11.776;2023-02-16T16:56:20;96294.50;;;8.98;45.26
34185;BME280;20454;48.100;11.776;2023-02-16T16:58:51;96296.38;;;8.79;45.65
34185;BME280;20454;48.100;11.776;2023-02-16T17:01:19;96296.56;;;8.59;46.12
34185;BME280;20454;48.100;11.776;2023-02-16T17:03:45;96284.22;;;8.42;47.19
34185;BME280;20454;48.100;11.776;2023-02-16T17:06:11;96293.75;;;8.26;48.19
34185;BME280;20454;48.100;11.776;2023-02-16T17:08:39;96292.72;;;8.12;48.55
34185;BME280;20454;48.100;11.776;2023-02-16T17:11:22;96289.22;;;7.96;49.98
34185;BME280;20454;48.100;11.776;2023-02-16T17:13:49;96287.38;;;7.82;50.44
34185;BME280;20454;48.100;11.776;2023-02-16T17:16:27;96293.25;;;7.70;51.35
34185;BME280;20454;48.100;11.776;2023-02-16T17:18:55;96301.06;;;7.58;51.43
34185;BME280;20454;48.100;11.776;2023-02-16T17:21:21;96298.63;;;7.42;52.83
34185;BME280;20454;48.100;11.776;2023-02-16T17:23:47;96300.09;;;7.29;53.12
34185;BME280;20454;48.100;11.776;2023-02-16T17:26:13;96298.75;;;7.17;53.42
34185;BME280;20454;48.100;11.776;2023-02-16T17:28:38;96307.06;;;7.07;54.13
34185;BME280;20454;48.100;11.776;2023-02-16T17:31:07;96304.06;;;6.93;54.77
34185;BME280;20454;48.100;11.776;2023-02-16T17:33:33;96303.53;;;6.81;55.03
34185;BME280;20454;48.100;11.776;2023-02-16T17:36:01;96304.63;;;6.70;55.40
34185;BME280;20454;48.100;11.776;2023-02-16T17:38:28;96306.59;;;6.65;56.02
34185;BME280;20454;48.100;11.776;2023-02-16T17:40:55;96293.63;;;6.50;56.16
34185;BME280;20454;48.100;11.776;2023-02-16T17:43:23;96311.56;;;6.43;56.63
34185;BME280;20454;48.100;11.776;2023-02-16T17:45:51;96312.13;;;6.35;56.99
34185;BME280;20454;48.100;11.776;2023-02-16T17:48:27;96305.50;;;6.21;57.21
34185;BME280;20454;48.100;11.776;2023-02-16T17:50:58;96315.72;;;6.15;57.52
34185;BME280;20454;48.100;11.776;2023-02-16T17:53:26;96311.28;;;6.04;58.10
34185;BME280;20454;48.100;11.776;2023-02-16T17:55:55;96310.44;;;5.99;58.37
34185;BME280;20454;48.100;11.776;2023-02-16T17:58:23;96318.44;;;5.90;58.89
34185;BME280;20454;48.100;11.776;2023-02-16T18:00:50;96322.53;;;5.83;59.26
34185;BME280;20454;48.100;11.776;2023-02-16T18:03:15;96323.09;;;5.80;59.01
34185;BME280;20454;48.100;11.776;2023-02-16T18:05:42;96323.59;;;5.72;59.46
34185;BME280;20454;48.100;11.776;2023-02-16T18:08:10;96319.97;;;5.66;59.02
34185;BME280;20454;48.100;11.776;2023-02-16T18:10:53;96320.78;;;5.62;59.27
34185;BME280;20454;48.100;11.776;2023-02-16T18:13:27;96328.25;;;5.56;58.95
34185;BME280;20454;48.100;11.776;2023-02-16T18:15:53;96326.59;;;5.55;59.10
34185;BME280;20454;48.100;11.776;2023-02-16T18:18:19;96327.41;;;5.51;59.16
34185;BME280;20454;48.100;11.776;2023-02-16T18:20:46;96320.75;;;5.47;59.58
34185;BME280;20454;48.100;11.776;2023-02-16T18:23:12;96328.47;;;5.45;59.99
34185;BME280;20454;48.100;11.776;2023-02-16T18:25:39;96327.63;;;5.44;59.76
34185;BME280;20454;48.100;11.776;2023-02-16T18:28:18;96324.59;;;5.41;59.99
34185;BME280;20454;48.100;11.776;2023-02-16T18:30:46;96331.22;;;5.40;59.81